עמוד ראשי
METAR-TAF:

METAR-TAF

שדות תעופה :

פוטוסי, בוליביה

קו רוחב: 19-33S, קו אורך: 065-44W, גובה: 3935מטר

תצפית מזג אוויר נוכחית

הדו"ח נערך לפני 5 שעות ו 39דקות, בשעה 22:00 UTC
רוח 10קשר מכיוון צפון
טמפרטורת 13 צלסיוס
לחות 28%
לחץ 1044 hPa
ראות 10 קילומטר או יותר

METAR: SLPO 242200Z 36010KT 9999 NSC 13/M05 Q1044

זמן: 23:39 (03:39 UTC)


TAF: חסר

תצפיות ותחזיות מזג אוויר לגבי יותר מ- 4,000 שדות תעופה ברחבי העולם. דוחות METAR ו- TAF.

התחנות הזמינות מסומנות בנקודות צהובות ואדומות על גבי המפה.

העבר את העכבר לנקודה הצבעונית על מנת לראות את שם התחנה.

לאחר מכן, לחץ כדי לראות את תוכן ואת תחזיות מזג האוויר.

כדי לשנות את המפה: לחץ על הכפתורים הירוקים עם הפלוס השחור כדי להתקרב; על הכפתור הירוק עם המקף כדי להתרחק; או בחיצים הירוקים למפות סמוכות.


METAR-TAF: